Time;durP1;ratioP1;P1;durP2;ratioP2;P2;SDS_P1;SDS_P2;PMS_P1;PMS_P2;Temp;Humidity;BMP_temperature;BMP_pressure;BME280_temperature;BME280_humidity;BME280_pressure;Samples;Min_cycle;Max_cycle;Signal;HPM_P1;HPM_P2
2021/03/20 09:04:26;;;;;;;5.65;2.17;;;;;;;4.94;46.86;99415.86;1780028;79;23835;-59
2021/03/20 09:21:48;;;;;;;3.00;1.80;;;;;;;5.13;42.77;99422.25;1825585;77;23581;-70
2021/03/20 09:24:26;;;;;;;2.05;1.70;;;;;;;5.13;42.08;99420.92;1794999;79;28184;-72
2021/03/20 09:27:00;;;;;;;2.22;1.62;;;;;;;5.14;42.45;99424.81;1756815;82;21299;-72
2021/03/20 09:29:34;;;;;;;2.85;1.60;;;;;;;5.12;42.49;99421.86;1757047;80;21228;-71
2021/03/20 09:32:09;;;;;;;5.12;2.25;;;;;;;5.07;43.00;99421.28;1755972;82;21592;-70
2021/03/20 09:34:42;;;;;;;2.45;1.85;;;;;;;5.07;44.36;99421.28;1762570;80;21161;-71
2021/03/20 09:37:25;;;;;;;4.33;1.95;;;;;;;5.24;44.37;99423.77;1768907;80;21286;-66
2021/03/20 09:39:55;;;;;;;3.17;2.22;;;;;;;5.34;44.36;99424.89;1782075;80;21315;-65
2021/03/20 09:42:30;;;;;;;3.80;2.10;;;;;;;5.42;44.17;99420.40;1763794;80;21284;-65
2021/03/20 09:45:15;;;;;;;5.22;2.17;;;;;;;5.55;44.59;99424.83;1738229;80;21211;-65
2021/03/20 09:47:49;;;;;;;4.70;2.20;;;;;;;5.76;44.39;99420.77;1669538;79;21712;-65
2021/03/20 09:50:29;;;;;;;2.75;1.87;;;;;;;5.96;43.99;99414.13;1768760;81;21318;-65
2021/03/20 09:53:14;;;;;;;4.95;2.27;;;;;;;6.09;44.04;99420.38;1760464;79;21371;-65
2021/03/20 09:55:50;;;;;;;3.80;2.25;;;;;;;6.19;43.77;99420.13;1709546;84;21550;-65
2021/03/20 09:58:24;;;;;;;3.90;1.95;;;;;;;6.13;43.57;99410.31;1709874;83;21170;-64
2021/03/20 10:00:57;;;;;;;4.78;2.47;;;;;;;6.02;44.16;99416.39;1731540;83;21164;-63
2021/03/20 10:03:51;;;;;;;4.85;2.40;;;;;;;5.93;44.27;99413.85;1736301;83;21191;-64
2021/03/20 10:06:30;;;;;;;3.45;2.10;;;;;;;5.79;44.87;99404.50;1736083;83;21265;-65
2021/03/20 10:09:10;;;;;;;4.65;2.80;;;;;;;5.67;45.34;99412.48;1735945;83;21156;-65
2021/03/20 10:11:54;;;;;;;5.62;2.47;;;;;;;5.65;45.37;99420.62;1736528;82;21195;-66
2021/03/20 10:14:33;;;;;;;3.92;2.10;;;;;;;5.63;45.18;99415.84;1735156;83;21223;-63
2021/03/20 10:17:20;;;;;;;4.00;2.60;;;;;;;5.61;45.25;99411.55;1736289;83;21207;-65
2021/03/20 10:19:51;;;;;;;4.92;2.80;;;;;;;5.57;45.73;99408.70;1736226;83;21211;-65
2021/03/20 10:22:32;;;;;;;3.58;2.52;;;;;;;5.59;46.02;99404.95;1733306;81;21308;-65
2021/03/20 10:25:00;;;;;;;5.62;2.80;;;;;;;5.72;45.33;99407.70;1729136;83;21202;-65
2021/03/20 10:27:36;;;;;;;4.83;2.42;;;;;;;5.79;44.92;99408.52;1714171;83;21185;-67
2021/03/20 10:30:24;;;;;;;3.67;2.35;;;;;;;5.82;44.89;99402.97;1679997;84;21364;-69
2021/03/20 10:33:17;;;;;;;6.33;2.65;;;;;;;5.88;44.34;99405.73;1735976;81;21215;-68
2021/03/20 10:35:45;;;;;;;8.23;2.67;;;;;;;5.88;44.26;99409.75;1716982;83;21326;-67
2021/03/20 10:38:28;;;;;;;2.80;1.98;;;;;;;5.91;44.43;99414.91;1706852;81;21592;-68
2021/03/20 10:41:05;;;;;;;3.58;2.55;;;;;;;5.98;44.82;99410.36;1676293;84;21879;-68
2021/03/20 10:43:48;;;;;;;6.00;3.20;;;;;;;6.04;44.44;99405.97;1735851;82;22221;-66
2021/03/20 10:46:26;;;;;;;3.37;2.40;;;;;;;6.08;44.34;99405.73;1736954;82;21624;-69
2021/03/20 10:48:56;;;;;;;3.92;2.50;;;;;;;6.08;43.66;99404.41;1734900;83;21175;-66
2021/03/20 10:51:25;;;;;;;5.00;2.58;;;;;;;5.95;44.24;99403.04;1733623;83;21187;-65
2021/03/20 10:53:56;;;;;;;3.27;2.30;;;;;;;5.82;44.70;99406.98;1728850;81;21352;-69
2021/03/20 10:56:36;;;;;;;3.87;2.47;;;;;;;5.72;44.31;99403.19;1731934;81;21301;-66
2021/03/20 10:59:25;;;;;;;5.05;3.00;;;;;;;5.59;44.92;99404.95;1724734;83;21749;-68
2021/03/20 11:01:54;;;;;;;3.75;2.70;;;;;;;5.55;45.63;99402.09;1728817;81;21582;-65
2021/03/20 11:04:32;;;;;;;3.10;2.45;;;;;;;5.57;46.00;99405.53;1736558;81;21510;-68
2021/03/20 11:07:02;;;;;;;4.08;2.60;;;;;;;5.57;46.18;99400.18;1735953;81;21192;-66
2021/03/20 11:09:33;;;;;;;4.65;2.72;;;;;;;5.58;46.49;99400.58;1734390;83;21353;-65
2021/03/20 11:12:06;;;;;;;5.12;2.80;;;;;;;5.68;46.26;99396.33;1739563;81;21348;-65
2021/03/20 11:14:54;;;;;;;4.42;2.77;;;;;;;5.82;45.77;99393.61;1714422;82;21153;-67
2021/03/20 11:17:25;;;;;;;4.83;2.75;;;;;;;5.87;45.55;99392.00;1718405;82;21329;-66
2021/03/20 11:20:20;;;;;;;4.35;2.62;;;;;;;5.82;45.56;99396.76;1683198;85;21226;-68
2021/03/20 11:22:47;;;;;;;5.00;3.42;;;;;;;5.77;45.59;99399.73;1709336;84;21212;-66
2021/03/20 11:25:30;;;;;;;4.45;2.70;;;;;;;5.66;45.94;99398.72;1714064;82;21315;-65
2021/03/20 11:28:18;;;;;;;3.92;2.62;;;;;;;5.56;46.28;99401.63;1713277;84;21176;-63
2021/03/20 11:30:49;;;;;;;4.08;2.90;;;;;;;5.50;46.61;99397.55;1709960;83;21610;-63
2021/03/20 11:33:23;;;;;;;5.50;2.98;;;;;;;5.51;47.01;99399.25;1735202;81;21179;-64
2021/03/20 11:35:57;;;;;;;7.22;2.95;;;;;;;5.57;47.77;99400.69;1716630;81;21196;-63
2021/03/20 11:38:26;;;;;;;8.33;3.00;;;;;;;5.55;48.55;99405.28;1683244;84;21186;-63
2021/03/20 11:41:06;;;;;;;6.05;2.60;;;;;;;5.57;48.67;99400.69;1664793;85;21203;-64
2021/03/20 11:43:52;;;;;;;3.33;2.50;;;;;;;5.58;48.47;99397.91;1708189;82;21182;-65
2021/03/20 11:46:25;;;;;;;8.08;2.80;;;;;;;5.66;48.72;99396.91;1709284;82;21312;-64
2021/03/20 11:48:59;;;;;;;5.95;2.80;;;;;;;5.71;48.75;99391.26;1708157;82;21577;-65
2021/03/20 11:51:39;;;;;;;5.08;2.62;;;;;;;5.76;48.19;99398.03;1693320;82;21206;-65
2021/03/20 11:54:22;;;;;;;4.65;2.40;;;;;;;5.79;47.83;99392.47;1673182;84;21368;-63
2021/03/20 11:56:54;;;;;;;3.47;2.40;;;;;;;5.92;47.52;99392.53;1660090;83;21641;-65
2021/03/20 11:59:38;;;;;;;5.28;2.42;;;;;;;6.03;47.13;99396.21;1669710;83;21176;-63
2021/03/20 12:02:13;;;;;;;8.28;2.72;;;;;;;6.15;46.89;99382.96;1677407;85;21162;-63
2021/03/20 12:04:41;;;;;;;3.35;2.60;;;;;;;6.36;46.47;99385.02;1692648;85;21580;-64
2021/03/20 12:07:29;;;;;;;3.92;2.77;;;;;;;6.54;44.96;99380.22;1678466;83;21199;-64
2021/03/20 12:10:20;;;;;;;4.67;2.92;;;;;;;6.60;44.56;99375.77;1690865;83;21143;-63
2021/03/20 12:12:51;;;;;;;3.12;2.40;;;;;;;6.62;44.42;99377.85;1663228;86;21593;-64
2021/03/20 12:15:31;;;;;;;5.55;2.85;;;;;;;6.70;44.66;99372.84;1664193;83;21330;-65
2021/03/20 12:18:13;;;;;;;4.87;3.02;;;;;;;6.75;43.78;99361.29;1663200;86;21624;-66
2021/03/20 12:20:44;;;;;;;3.65;2.80;;;;;;;6.75;43.78;99361.29;1685713;83;21374;-64
2021/03/20 12:23:22;;;;;;;6.60;2.80;;;;;;;6.69;44.24;99370.63;1682289;83;21309;-65
2021/03/20 12:25:58;;;;;;;5.47;2.35;;;;;;;6.64;44.48;99369.25;1678990;83;21147;-64
2021/03/20 12:28:38;;;;;;;5.53;3.33;;;;;;;6.47;45.12;99374.91;1691487;85;21163;-65
2021/03/20 12:31:22;;;;;;;4.30;2.50;;;;;;;6.36;44.76;99375.66;1691874;83;21201;-65
2021/03/20 12:34:14;;;;;;;3.22;1.82;;;;;;;6.26;44.63;99370.57;1661542;85;21178;-63
2021/03/20 12:36:45;;;;;;;4.25;1.92;;;;;;;6.26;43.00;99369.70;1689607;85;21613;-66
2021/03/20 12:39:20;;;;;;;4.28;2.20;;;;;;;6.24;42.68;99361.80;1686951;83;21190;-68
2021/03/20 12:41:58;;;;;;;4.92;2.40;;;;;;;6.30;43.00;99365.38;1687159;85;21350;-71
2021/03/20 12:44:30;;;;;;;4.60;2.58;;;;;;;6.34;43.26;99367.34;1663428;85;21337;-67
2021/03/20 12:47:13;;;;;;;5.37;2.92;;;;;;;6.33;43.72;99368.33;1660907;85;21183;-69
2021/03/20 12:49:47;;;;;;;7.95;3.67;;;;;;;6.21;44.39;99374.03;1669647;86;21151;-69
2021/03/20 12:52:20;;;;;;;7.22;3.22;;;;;;;6.06;46.73;99380.43;1683143;85;21135;-71
2021/03/20 12:54:51;;;;;;;6.13;3.93;;;;;;;5.93;47.73;99383.09;1690285;83;21729;-70
2021/03/20 12:57:28;;;;;;;7.80;3.60;;;;;;;5.85;49.11;99380.05;1700880;84;21170;-68
2021/03/20 12:59:59;;;;;;;5.80;3.50;;;;;;;5.73;49.94;99382.18;1741316;82;21208;-70
2021/03/20 13:02:28;;;;;;;5.87;3.10;;;;;;;5.63;50.92;99390.91;1742533;82;21397;-72
2021/03/20 13:04:57;;;;;;;3.65;2.85;;;;;;;5.55;51.54;99387.90;1742191;82;21191;-71
2021/03/20 13:07:25;;;;;;;4.95;2.70;;;;;;;5.47;51.89;99389.72;1739393;82;21181;-70
2021/03/20 13:09:56;;;;;;;4.00;2.52;;;;;;;5.45;52.18;99384.09;1739551;81;21596;-71
2021/03/20 13:12:24;;;;;;;5.30;3.02;;;;;;;5.43;53.24;99378.86;1704003;84;21735;-70
2021/03/20 13:14:55;;;;;;;4.33;2.98;;;;;;;5.48;54.25;99376.75;1704466;84;21202;-69
2021/03/20 13:17:24;;;;;;;3.70;2.70;;;;;;;5.64;54.23;99371.22;1673896;84;21148;-70
2021/03/20 13:19:52;;;;;;;3.22;2.47;;;;;;;5.84;53.96;99366.31;1736021;81;21168;-66
2021/03/20 13:22:21;;;;;;;5.28;3.12;;;;;;;6.03;52.82;99361.90;1754783;81;21256;-67
2021/03/20 13:24:53;;;;;;;7.20;2.85;;;;;;;6.05;52.43;99355.48;1731588;82;21156;-68
2021/03/20 13:27:22;;;;;;;6.30;2.92;;;;;;;6.06;52.45;99351.00;1748510;81;21562;-69
2021/03/20 13:29:55;;;;;;;4.85;2.65;;;;;;;5.97;52.03;99345.80;1730391;81;21222;-67
2021/03/20 13:32:28;;;;;;;4.03;2.67;;;;;;;5.93;50.67;99357.67;1747030;81;21179;-65
2021/03/20 13:34:58;;;;;;;5.12;2.40;;;;;;;5.80;50.33;99359.42;1736728;81;21183;-65
2021/03/20 13:37:27;;;;;;;4.72;2.55;;;;;;;5.73;50.47;99352.77;1732856;81;21203;-66
2021/03/20 13:39:56;;;;;;;11.78;3.00;;;;;;;5.67;50.48;99351.84;1720000;81;21354;-66
2021/03/20 13:42:23;;;;;;;6.75;3.10;;;;;;;5.70;50.66;99352.95;1689133;84;21157;-67
2021/03/20 13:44:53;;;;;;;5.08;3.40;;;;;;;5.77;50.02;99354.27;1752350;81;21164;-69
2021/03/20 13:47:21;;;;;;;7.30;3.70;;;;;;;5.76;50.12;99351.23;1723034;82;21183;-66
2021/03/20 13:49:49;;;;;;;6.75;4.05;;;;;;;5.72;50.12;99349.70;1731272;81;21325;-68
2021/03/20 13:52:19;;;;;;;7.90;3.72;;;;;;;5.65;50.07;99352.42;1731044;81;21187;-69
2021/03/20 13:54:48;;;;;;;6.78;2.85;;;;;;;5.58;50.30;99359.13;1725047;81;22246;-67
2021/03/20 13:57:16;;;;;;;5.90;3.25;;;;;;;5.58;50.46;99364.48;1720629;83;21335;-68
2021/03/20 13:59:44;;;;;;;6.58;3.40;;;;;;;5.56;50.89;99374.42;1724132;83;21331;-69
2021/03/20 14:02:15;;;;;;;6.45;2.58;;;;;;;5.46;51.72;99374.63;1701246;82;21157;-69
2021/03/20 14:04:49;;;;;;;5.65;2.87;;;;;;;5.28;52.48;99376.70;1670030;84;21140;-69
2021/03/20 14:07:35;;;;;;;3.20;2.35;;;;;;;5.10;53.03;99373.01;1681920;84;21175;-66
2021/03/20 14:10:22;;;;;;;4.00;3.00;;;;;;;5.00;53.75;99369.22;1731493;83;21623;-70
2021/03/20 14:12:50;;;;;;;6.33;3.00;;;;;;;4.96;54.71;99375.69;1703039;84;21172;-67
2021/03/20 14:15:23;;;;;;;4.92;2.98;;;;;;;4.95;55.39;99380.66;1721598;82;21133;-69
2021/03/20 14:17:52;;;;;;;4.40;2.83;;;;;;;4.94;56.34;99382.47;1730253;81;21381;-65
2021/03/20 14:20:25;;;;;;;5.35;3.33;;;;;;;4.95;56.74;99384.67;1674274;84;21332;-68
2021/03/20 14:22:54;;;;;;;9.58;3.75;;;;;;;4.97;56.93;99374.28;1664845;84;21700;-69
2021/03/20 14:25:25;;;;;;;7.25;3.47;;;;;;;4.99;56.74;99374.17;1683014;84;21207;-66
2021/03/20 14:27:53;;;;;;;9.63;3.42;;;;;;;4.97;56.94;99366.27;1688024;84;21818;-70
2021/03/20 14:30:32;;;;;;;6.92;3.27;;;;;;;4.90;57.09;99370.73;1673932;84;21402;-67
2021/03/20 14:33:03;;;;;;;5.00;3.20;;;;;;;4.78;57.39;99366.19;1693144;83;21409;-68
2021/03/20 14:35:35;;;;;;;4.87;2.95;;;;;;;4.71;57.63;99368.85;1730379;82;21591;-71
2021/03/20 14:38:04;;;;;;;9.15;3.27;;;;;;;4.64;57.74;99376.86;1711030;82;21177;-67
2021/03/20 14:40:37;;;;;;;8.43;3.60;;;;;;;4.55;58.07;99375.62;1731726;82;21159;-68
2021/03/20 14:43:05;;;;;;;6.75;3.35;;;;;;;4.52;58.41;99378.50;1723859;82;21156;-67
2021/03/20 14:45:33;;;;;;;4.78;3.08;;;;;;;4.45;58.45;99374.01;1722234;82;21164;-69
2021/03/20 14:48:00;;;;;;;5.83;3.87;;;;;;;4.41;58.62;99378.29;1731585;82;21595;-66
2021/03/20 14:50:30;;;;;;;7.50;4.65;;;;;;;4.35;58.74;99376.84;1735207;82;21125;-67
2021/03/20 14:53:01;;;;;;;7.20;4.42;;;;;;;4.31;58.94;99381.98;1704154;84;21284;-69
2021/03/20 14:55:29;;;;;;;5.72;4.08;;;;;;;4.23;59.06;99378.93;1731316;81;21305;-67
2021/03/20 14:57:57;;;;;;;14.50;4.70;;;;;;;4.23;59.24;99385.59;1729687;83;21184;-68
2021/03/20 15:00:37;;;;;;;5.33;3.85;;;;;;;4.25;59.37;99387.70;1705423;83;21164;-70
2021/03/20 15:03:06;;;;;;;9.10;4.00;;;;;;;4.26;59.94;99394.73;1727748;81;21427;-71
2021/03/20 15:05:36;;;;;;;6.72;3.98;;;;;;;4.14;61.01;99391.95;1734333;81;21192;-72
2021/03/20 15:08:05;;;;;;;8.70;3.70;;;;;;;4.03;62.17;99407.27;1733066;81;21317;-71
2021/03/20 15:10:41;;;;;;;4.15;2.95;;;;;;;3.94;64.58;99417.60;1730849;81;21342;-70
2021/03/20 15:13:09;;;;;;;6.47;3.30;;;;;;;3.76;66.72;99414.20;1710467;83;21255;-68
2021/03/20 15:15:41;;;;;;;4.90;3.27;;;;;;;3.48;69.99;99417.59;1735098;81;21142;-70
2021/03/20 15:18:12;;;;;;;5.90;3.50;;;;;;;3.17;72.46;99412.76;1732487;81;21123;-71
2021/03/20 15:20:41;;;;;;;5.00;3.50;;;;;;;2.93;74.14;99413.14;1726181;82;21166;-70
2021/03/20 15:23:14;;;;;;;4.05;2.60;;;;;;;2.76;75.17;99426.52;1677368;84;21323;-74
2021/03/20 15:25:43;;;;;;;3.62;2.50;;;;;;;2.66;76.49;99420.44;1675973;84;21168;-69
2021/03/20 15:28:11;;;;;;;3.72;2.90;;;;;;;2.54;76.79;99412.63;1715755;82;21194;-70
2021/03/20 15:30:41;;;;;;;3.33;2.58;;;;;;;2.47;77.12;99424.53;1711591;82;21178;-65
2021/03/20 15:33:15;;;;;;;3.65;2.25;;;;;;;2.46;77.03;99416.18;1696801;82;21194;-70
2021/03/20 15:35:46;;;;;;;3.83;2.37;;;;;;;2.48;77.31;99421.41;1724597;82;21284;-68
2021/03/20 15:38:16;;;;;;;4.15;2.08;;;;;;;2.52;77.34;99410.98;1703703;84;21146;-66
2021/03/20 15:40:50;;;;;;;5.95;3.02;;;;;;;2.59;77.26;99409.27;1743098;81;21619;-66
2021/03/20 15:43:21;;;;;;;4.08;2.37;;;;;;;2.63;76.75;99408.16;1736745;81;21175;-63
2021/03/20 15:45:50;;;;;;;4.43;3.00;;;;;;;2.70;76.40;99413.55;1742683;81;21200;-63
2021/03/20 15:48:20;;;;;;;6.70;3.50;;;;;;;2.69;76.05;99411.81;1743170;81;21172;-63
2021/03/20 15:50:52;;;;;;;4.08;2.70;;;;;;;2.71;76.15;99411.75;1684279;84;21312;-62
2021/03/20 15:53:20;;;;;;;6.90;3.27;;;;;;;2.72;76.19;99414.78;1748271;81;21184;-65
2021/03/20 15:55:49;;;;;;;4.97;3.22;;;;;;;2.75;76.21;99411.97;1730870;81;21196;-66
2021/03/20 15:58:38;;;;;;;8.83;3.95;;;;;;;2.88;76.70;99409.87;1770086;79;23165;-65
2021/03/20 16:01:11;;;;;;;5.10;3.45;;;;;;;2.86;76.11;99405.09;1701103;83;21618;-62
2021/03/20 16:03:43;;;;;;;7.37;3.37;;;;;;;2.84;75.49;99410.98;1724658;82;21605;-65
2021/03/20 16:06:13;;;;;;;6.03;3.73;;;;;;;2.81;75.46;99411.63;1734773;82;21199;-63
2021/03/20 16:08:46;;;;;;;7.35;3.85;;;;;;;2.79;75.36;99407.73;1724733;82;21588;-64
2021/03/20 16:11:17;;;;;;;6.35;3.70;;;;;;;2.75;75.44;99403.48;1724274;82;21296;-61
2021/03/20 16:13:46;;;;;;;7.03;3.80;;;;;;;2.72;75.57;99411.66;1738052;82;21203;-67
2021/03/20 16:16:19;;;;;;;8.20;3.73;;;;;;;2.68;75.28;99404.79;1750640;82;21370;-63
2021/03/20 16:18:47;;;;;;;5.87;4.20;;;;;;;2.65;75.54;99408.94;1749133;82;21267;-63
2021/03/20 16:21:17;;;;;;;8.30;4.37;;;;;;;2.66;75.42;99406.67;1738303;82;21175;-69
2021/03/20 16:23:46;;;;;;;7.83;4.23;;;;;;;2.65;75.08;99404.94;1729904;82;21166;-69
2021/03/20 16:26:17;;;;;;;5.53;4.10;;;;;;;2.62;74.99;99402.43;1744238;82;21170;-64
2021/03/20 16:28:46;;;;;;;8.90;4.70;;;;;;;2.62;74.67;99404.26;1730309;82;21324;-67
2021/03/20 16:31:26;;;;;;;7.10;4.93;;;;;;;2.58;74.69;99410.20;1738094;82;21171;-59
2021/03/20 16:33:54;;;;;;;8.23;5.62;;;;;;;2.59;74.74;99411.06;1723596;83;21711;-58
2021/03/20 16:36:26;;;;;;;8.43;5.20;;;;;;;2.59;74.71;99417.25;1702419;83;21190;-58
2021/03/20 16:38:59;;;;;;;7.53;5.13;;;;;;;2.60;74.65;99414.13;1739568;82;21127;-56
2021/03/20 16:41:31;;;;;;;;;;;;;;;2.60;74.51;99414.96;1752492;82;21561;-61
2021/03/20 16:43:58;;;;;;;11.80;6.37;;;;;;;2.60;74.52;99413.63;1744475;82;20225;-61
2021/03/20 16:46:26;;;;;;;7.50;5.08;;;;;;;2.58;74.25;99412.86;1732176;82;21167;-62
2021/03/20 16:48:55;;;;;;;8.90;5.67;;;;;;;2.57;73.87;99416.48;1730540;82;21175;-61
2021/03/20 16:51:26;;;;;;;12.05;6.60;;;;;;;2.56;73.71;99419.19;1690652;85;21158;-57
2021/03/20 16:53:54;;;;;;;10.13;5.60;;;;;;;2.56;73.64;99416.53;1702076;83;21633;-57
2021/03/20 16:56:24;;;;;;;8.97;5.93;;;;;;;2.56;73.52;99424.05;1706092;84;21285;-58
2021/03/20 16:58:53;;;;;;;11.00;5.80;;;;;;;2.56;72.74;99422.72;1682018;84;21219;-57
2021/03/20 17:01:22;;;;;;;10.00;5.53;;;;;;;2.57;72.44;99424.92;1696514;84;21141;-58
2021/03/20 17:03:52;;;;;;;9.60;5.83;;;;;;;2.57;72.32;99424.45;1717049;82;21195;-58
2021/03/20 17:06:22;;;;;;;9.77;5.60;;;;;;;2.58;72.00;99430.14;1693603;84;21313;-59
2021/03/20 17:08:52;;;;;;;8.47;5.17;;;;;;;2.58;71.76;99423.99;1685351;84;21352;-57
2021/03/20 17:11:20;;;;;;;11.43;5.17;;;;;;;2.60;71.78;99440.23;1677571;84;21186;-59
2021/03/20 17:13:48;;;;;;;10.90;5.78;;;;;;;2.64;71.63;99429.84;1687100;84;21227;-58
2021/03/20 17:16:17;;;;;;;12.30;5.97;;;;;;;2.63;70.44;99432.11;1651230;84;21150;-57
2021/03/20 17:18:47;;;;;;;9.10;5.50;;;;;;;2.65;70.28;99434.21;1686399;84;21219;-57
2021/03/20 17:21:15;;;;;;;9.53;5.50;;;;;;;2.68;70.16;99429.20;1683192;84;21135;-57
2021/03/20 17:23:44;;;;;;;11.57;5.53;;;;;;;2.73;70.05;99429.83;1675717;84;21187;-55
2021/03/20 17:26:13;;;;;;;10.20;5.83;;;;;;;2.77;69.89;99432.70;1678524;84;21159;-60
2021/03/20 17:28:41;;;;;;;7.28;4.90;;;;;;;2.82;70.11;99431.97;1686323;84;21164;-58
2021/03/20 17:31:18;;;;;;;9.40;5.35;;;;;;;2.84;69.23;99429.61;1681439;84;21639;-57
2021/03/20 17:33:42;;;;;;;7.65;5.30;;;;;;;2.86;68.94;99433.05;1694364;84;21158;-58
2021/03/20 17:36:12;;;;;;;9.27;5.40;;;;;;;2.90;68.63;99436.42;1681325;84;21296;-56
2021/03/20 17:38:41;;;;;;;11.50;5.62;;;;;;;2.92;68.64;99434.08;1681170;84;21139;-57
